Time;durP1;ratioP1;P1;durP2;ratioP2;P2;SDS_P1;SDS_P2;PMS_P1;PMS_P2;Temp;Humidity;BMP_temperature;BMP_pressure;BME280_temperature;BME280_humidity;BME280_pressure;Samples;Min_cycle;Max_cycle;Signal;HPM_P1;HPM_P2
2023/09/11 00:01:12;;;;;;;44.80;40.00;;;20.30;99.90;;;;;;5048620;28;20872;-70
2023/09/11 00:03:40;;;;;;;42.60;38.03;;;20.30;99.90;;;;;;5044751;28;20446;-70
2023/09/11 00:06:08;;;;;;;41.43;36.93;;;20.20;99.90;;;;;;5052775;28;20459;-70
2023/09/11 00:08:35;;;;;;;45.07;40.57;;;20.20;99.90;;;;;;5050989;28;20542;-71
2023/09/11 00:11:03;;;;;;;53.20;44.67;;;20.20;99.90;;;;;;5049931;28;20446;-71
2023/09/11 00:13:31;;;;;;;42.83;38.43;;;20.10;99.90;;;;;;5047487;28;20913;-72
2023/09/11 00:15:59;;;;;;;47.13;40.57;;;20.20;99.90;;;;;;5053363;28;20537;-70
2023/09/11 00:18:26;;;;;;;50.43;43.60;;;20.10;99.90;;;;;;5052054;28;20453;-72
2023/09/11 00:20:54;;;;;;;47.90;41.87;;;20.00;99.90;;;;;;5049962;28;20447;-68
2023/09/11 00:23:22;;;;;;;49.30;44.20;;;19.90;99.90;;;;;;5052920;28;20529;-72
2023/09/11 00:25:49;;;;;;;49.53;44.23;;;19.90;99.90;;;;;;5048458;28;20553;-71
2023/09/11 00:28:16;;;;;;;47.10;42.10;;;19.90;99.90;;;;;;5052470;28;20521;-71
2023/09/11 00:30:43;;;;;;;52.83;47.03;;;19.80;99.90;;;;;;5051427;28;20489;-71
2023/09/11 00:33:09;;;;;;;53.87;48.10;;;19.70;99.90;;;;;;5050303;28;20470;-71
2023/09/11 00:35:37;;;;;;;56.93;51.00;;;19.70;99.90;;;;;;5046806;28;20544;-71
2023/09/11 00:38:05;;;;;;;56.00;50.20;;;19.60;99.90;;;;;;5034386;28;20478;-73
2023/09/11 00:40:32;;;;;;;55.63;49.73;;;19.50;99.90;;;;;;5038195;28;20952;-73
2023/09/11 00:42:59;;;;;;;59.17;52.87;;;19.50;99.90;;;;;;5049098;28;20554;-70
2023/09/11 00:45:26;;;;;;;58.57;52.17;;;19.40;99.90;;;;;;5042001;28;20531;-70
2023/09/11 00:47:53;;;;;;;62.60;54.67;;;19.40;99.90;;;;;;5044852;28;20537;-69
2023/09/11 00:50:21;;;;;;;60.07;53.30;;;19.30;99.90;;;;;;5052227;28;20482;-72
2023/09/11 00:52:48;;;;;;;57.00;51.17;;;19.30;99.90;;;;;;5049399;28;20522;-71
2023/09/11 00:55:17;;;;;;;57.20;51.13;;;19.30;99.90;;;;;;5050016;28;20453;-71
2023/09/11 00:57:44;;;;;;;58.27;51.47;;;19.30;99.90;;;;;;5050322;28;20930;-71
2023/09/11 01:00:14;;;;;;;62.20;55.43;;;19.30;99.90;;;;;;5049872;28;20488;-71
2023/09/11 01:02:41;;;;;;;57.57;51.63;;;19.30;99.90;;;;;;5051977;28;20538;-71
2023/09/11 01:05:09;;;;;;;56.33;50.33;;;19.30;99.90;;;;;;5051385;28;20529;-71
2023/09/11 01:07:36;;;;;;;60.03;52.23;;;19.30;99.90;;;;;;5050572;28;20474;-69
2023/09/11 01:10:06;;;;;;;58.30;51.90;;;19.30;99.90;;;;;;5048911;28;20525;-70
2023/09/11 01:12:38;;;;;;;57.63;51.77;;;19.30;99.90;;;;;;5050938;28;20955;-72
2023/09/11 01:15:07;;;;;;;56.27;49.27;;;19.40;99.90;;;;;;5052532;28;20438;-70
2023/09/11 01:17:41;;;;;;;55.17;49.37;;;19.30;99.90;;;;;;5051651;28;20486;-74
2023/09/11 01:20:30;;;;;;;52.60;46.93;;;19.30;99.90;;;;;;5040651;28;20437;-72
2023/09/11 01:23:17;;;;;;;61.87;53.70;;;19.40;99.90;;;;;;5046863;28;20480;-70
2023/09/11 01:26:02;;;;;;;62.90;55.00;;;19.40;99.90;;;;;;5050154;28;20462;-69
2023/09/11 01:28:48;;;;;;;50.77;45.27;;;19.20;99.90;;;;;;5030123;28;21106;-70
2023/09/11 01:31:19;;;;;;;54.23;48.40;;;19.20;99.90;;;;;;5036370;28;20446;-70
2023/09/11 01:33:46;;;;;;;60.23;51.73;;;19.20;99.90;;;;;;5044840;28;20525;-70
2023/09/11 01:36:12;;;;;;;60.47;53.83;;;19.20;99.90;;;;;;5041476;28;20465;-71
2023/09/11 01:38:39;;;;;;;53.60;48.37;;;19.10;99.90;;;;;;5051417;28;20577;-73
2023/09/11 01:41:08;;;;;;;53.67;47.83;;;19.10;99.90;;;;;;5052253;28;20508;-69
2023/09/11 01:43:37;;;;;;;58.60;52.20;;;19.10;99.90;;;;;;5051841;28;20540;-68
2023/09/11 01:46:06;;;;;;;59.20;51.67;;;19.10;99.90;;;;;;5051253;28;20472;-70
2023/09/11 01:48:35;;;;;;;58.73;52.33;;;19.00;99.90;;;;;;5050786;28;20458;-71
2023/09/11 01:51:04;;;;;;;53.20;47.27;;;19.00;99.90;;;;;;5050356;28;20962;-71
2023/09/11 01:53:32;;;;;;;50.20;45.30;;;18.90;99.90;;;;;;5060713;28;20438;-71
2023/09/11 01:55:59;;;;;;;58.00;51.33;;;19.00;99.90;;;;;;5054762;28;20478;-68
2023/09/11 01:58:27;;;;;;;57.40;51.33;;;18.90;99.90;;;;;;5063211;28;20577;-69
2023/09/11 02:00:54;;;;;;;57.13;51.03;;;18.90;99.90;;;;;;5065329;28;20560;-71
2023/09/11 02:03:21;;;;;;;51.43;46.33;;;18.80;99.90;;;;;;5060794;28;20446;-71
2023/09/11 02:05:49;;;;;;;50.07;45.00;;;18.80;99.90;;;;;;5052440;28;20821;-71
2023/09/11 02:08:16;;;;;;;48.10;43.20;;;18.80;99.90;;;;;;5043252;28;20945;-71
2023/09/11 02:10:43;;;;;;;47.33;42.63;;;18.90;99.90;;;;;;5047073;28;20445;-73
2023/09/11 02:13:11;;;;;;;49.03;44.13;;;18.90;99.90;;;;;;5045419;28;20448;-70
2023/09/11 02:15:37;;;;;;;50.03;45.00;;;18.90;99.90;;;;;;5050127;28;20468;-71
2023/09/11 02:18:05;;;;;;;43.00;38.50;;;18.90;99.90;;;;;;5048507;28;20576;-68
2023/09/11 02:20:31;;;;;;;47.47;42.60;;;18.90;99.90;;;;;;5045317;28;20783;-68
2023/09/11 02:23:00;;;;;;;48.17;43.53;;;19.00;99.90;;;;;;5050565;28;20456;-69
2023/09/11 02:25:27;;;;;;;48.17;43.13;;;18.90;99.90;;;;;;5046451;28;20489;-71
2023/09/11 02:27:53;;;;;;;40.17;36.17;;;18.90;99.90;;;;;;5049569;28;20463;-71
2023/09/11 02:30:20;;;;;;;46.50;42.00;;;18.90;99.90;;;;;;5050349;28;20442;-69
2023/09/11 02:32:48;;;;;;;39.63;35.73;;;18.90;99.90;;;;;;5050922;28;20444;-71
2023/09/11 02:35:15;;;;;;;44.13;39.90;;;18.90;99.90;;;;;;5049726;28;20446;-71
2023/09/11 02:37:42;;;;;;;46.00;41.30;;;18.90;99.90;;;;;;5050005;28;20578;-72
2023/09/11 02:40:11;;;;;;;43.07;38.73;;;18.90;99.90;;;;;;5050836;28;20456;-70
2023/09/11 02:42:38;;;;;;;37.97;34.20;;;18.80;99.90;;;;;;5049173;28;20530;-70
2023/09/11 02:45:05;;;;;;;43.13;38.73;;;18.80;99.90;;;;;;5050859;28;20528;-71
2023/09/11 02:47:32;;;;;;;41.37;37.07;;;18.80;99.90;;;;;;5050807;28;20520;-70
2023/09/11 02:49:59;;;;;;;40.77;36.80;;;18.80;99.90;;;;;;5044261;28;20525;-71
2023/09/11 02:52:26;;;;;;;38.03;34.20;;;18.80;99.90;;;;;;5052067;28;20810;-71
2023/09/11 02:54:53;;;;;;;42.00;37.90;;;18.70;99.90;;;;;;5053529;28;21021;-72
2023/09/11 02:57:21;;;;;;;40.57;36.70;;;18.70;99.90;;;;;;5052146;28;20865;-71
2023/09/11 02:59:48;;;;;;;38.77;34.97;;;18.70;99.90;;;;;;5048033;28;20879;-70
2023/09/11 03:02:15;;;;;;;34.80;31.60;;;18.80;99.90;;;;;;5054783;28;20542;-71
2023/09/11 03:04:42;;;;;;;44.50;39.70;;;18.90;99.90;;;;;;5049458;28;20439;-71
2023/09/11 03:07:09;;;;;;;35.63;32.17;;;18.80;99.90;;;;;;5052579;28;20484;-71
2023/09/11 03:09:35;;;;;;;39.03;35.10;;;18.80;99.90;;;;;;5051085;28;20452;-71
2023/09/11 03:12:02;;;;;;;41.80;37.73;;;18.80;99.90;;;;;;5051720;28;20927;-70
2023/09/11 03:14:31;;;;;;;41.07;36.03;;;18.80;99.90;;;;;;5054655;28;20442;-72
2023/09/11 03:16:57;;;;;;;43.43;38.93;;;18.80;99.90;;;;;;5053226;28;20470;-69
2023/09/11 03:19:24;;;;;;;46.30;41.43;;;18.70;99.90;;;;;;5049378;28;20473;-71
2023/09/11 03:21:51;;;;;;;45.23;40.77;;;18.70;99.90;;;;;;5046760;28;20872;-71
2023/09/11 03:24:18;;;;;;;46.40;41.50;;;18.60;99.90;;;;;;5053909;28;20543;-70
2023/09/11 03:26:47;;;;;;;47.30;42.67;;;18.50;99.90;;;;;;5051934;28;20565;-72
2023/09/11 03:29:15;;;;;;;43.13;38.83;;;18.50;99.90;;;;;;5046412;28;20529;-72
2023/09/11 03:31:43;;;;;;;47.87;43.20;;;18.50;99.90;;;;;;5053839;28;20874;-70
2023/09/11 03:34:13;;;;;;;38.07;34.43;;;18.50;99.90;;;;;;5052842;28;20496;-69
2023/09/11 03:36:41;;;;;;;45.77;41.07;;;18.50;99.90;;;;;;5053146;28;20477;-70
2023/09/11 03:39:08;;;;;;;46.07;41.67;;;18.50;99.90;;;;;;5052839;28;20485;-72
2023/09/11 03:41:35;;;;;;;44.10;39.83;;;18.50;99.90;;;;;;5053556;28;20605;-71
2023/09/11 03:44:02;;;;;;;42.87;38.47;;;18.50;99.90;;;;;;5049899;28;20449;-72
2023/09/11 03:46:30;;;;;;;40.53;36.63;;;18.50;99.90;;;;;;5053025;28;20457;-72
2023/09/11 03:48:58;;;;;;;43.17;38.90;;;18.50;99.90;;;;;;5052125;28;20464;-69
2023/09/11 03:51:25;;;;;;;40.83;36.50;;;18.60;99.90;;;;;;5052720;28;20869;-68
2023/09/11 03:53:52;;;;;;;45.37;40.90;;;18.60;99.90;;;;;;5053547;28;20438;-71
2023/09/11 03:56:19;;;;;;;41.80;37.33;;;18.50;99.90;;;;;;5048741;28;20478;-70
2023/09/11 03:58:46;;;;;;;45.37;38.90;;;18.60;99.90;;;;;;5052008;28;21046;-69
2023/09/11 04:01:13;;;;;;;42.27;37.80;;;18.60;99.90;;;;;;5051438;28;20536;-68
2023/09/11 04:03:41;;;;;;;45.47;40.77;;;18.60;99.90;;;;;;5051007;28;20429;-72
2023/09/11 04:06:10;;;;;;;45.90;40.60;;;18.50;99.90;;;;;;5050744;28;20548;-70
2023/09/11 04:08:37;;;;;;;42.80;38.70;;;18.50;99.90;;;;;;5051909;28;20528;-71
2023/09/11 04:11:03;;;;;;;40.17;36.07;;;18.50;99.90;;;;;;5047992;28;20465;-71
2023/09/11 04:13:30;;;;;;;40.53;36.43;;;18.50;99.90;;;;;;5049550;28;20443;-71
2023/09/11 04:15:57;;;;;;;40.57;36.53;;;18.40;99.90;;;;;;5048969;28;21036;-71
2023/09/11 04:18:24;;;;;;;37.57;33.87;;;18.40;99.90;;;;;;5050186;28;20485;-69
2023/09/11 04:21:01;;;;;;;45.03;40.33;;;18.40;99.90;;;;;;5051542;28;20476;-70
2023/09/11 04:23:29;;;;;;;41.87;37.57;;;18.50;99.90;;;;;;5042901;28;20532;-70
2023/09/11 04:25:57;;;;;;;41.13;37.17;;;18.40;99.90;;;;;;5052076;28;20481;-71
2023/09/11 04:28:23;;;;;;;36.87;33.30;;;18.40;99.90;;;;;;5041559;28;20559;-71
2023/09/11 04:30:51;;;;;;;37.53;33.83;;;18.40;99.90;;;;;;5052299;28;20448;-74
2023/09/11 04:33:19;;;;;;;36.90;33.47;;;18.50;99.90;;;;;;5053388;28;20870;-73
2023/09/11 04:35:46;;;;;;;38.97;35.17;;;18.50;99.90;;;;;;5047515;28;21102;-71
2023/09/11 04:38:13;;;;;;;41.07;36.87;;;18.40;99.90;;;;;;5051014;28;20521;-69
2023/09/11 04:40:42;;;;;;;42.10;37.87;;;18.40;99.90;;;;;;5048893;28;20454;-71
2023/09/11 04:43:09;;;;;;;38.57;34.63;;;18.30;99.90;;;;;;5052289;28;20867;-71
2023/09/11 04:45:35;;;;;;;36.33;31.33;;;18.30;99.90;;;;;;5052545;28;21030;-71
2023/09/11 04:48:02;;;;;;;36.70;32.90;;;18.40;99.90;;;;;;5045753;28;20540;-73
2023/09/11 04:50:29;;;;;;;41.27;36.87;;;18.40;99.90;;;;;;5051670;28;20532;-73
2023/09/11 04:52:56;;;;;;;34.73;31.57;;;18.30;99.90;;;;;;5052020;28;20834;-73
2023/09/11 04:55:23;;;;;;;35.70;32.17;;;18.30;99.90;;;;;;5052392;28;20473;-72
2023/09/11 04:57:52;;;;;;;35.70;30.33;;;18.30;99.90;;;;;;5046246;28;20501;-73
2023/09/11 05:00:19;;;;;;;37.87;33.93;;;18.40;99.90;;;;;;5047517;28;20461;-71
2023/09/11 05:02:48;;;;;;;35.70;32.27;;;18.40;99.90;;;;;;5048069;28;20449;-69
2023/09/11 05:05:15;;;;;;;33.97;30.47;;;18.40;99.90;;;;;;5051567;28;21291;-70
2023/09/11 05:07:42;;;;;;;33.80;30.40;;;18.40;99.90;;;;;;5047987;28;20529;-71
2023/09/11 05:10:09;;;;;;;32.27;28.93;;;18.50;99.90;;;;;;5046540;28;20446;-71
2023/09/11 05:12:36;;;;;;;32.83;29.60;;;18.50;99.90;;;;;;5050033;28;20441;-71
2023/09/11 05:15:06;;;;;;;36.73;33.10;;;18.50;99.90;;;;;;5044385;28;20438;-71
2023/09/11 05:17:33;;;;;;;32.17;28.97;;;18.60;99.90;;;;;;5050835;28;20565;-71
2023/09/11 05:20:00;;;;;;;35.43;31.97;;;18.70;99.90;;;;;;5040424;28;20438;-68
2023/09/11 05:22:27;;;;;;;34.00;30.60;;;18.70;99.90;;;;;;5051605;28;20456;-71
2023/09/11 05:24:54;;;;;;;36.23;32.53;;;18.70;99.90;;;;;;5048622;28;20470;-72
2023/09/11 05:27:22;;;;;;;36.70;32.90;;;18.80;99.90;;;;;;5049995;28;20492;-69
2023/09/11 05:29:49;;;;;;;32.60;28.33;;;18.80;99.90;;;;;;5050321;28;20442;-70
2023/09/11 05:32:18;;;;;;;35.67;32.10;;;18.90;99.90;;;;;;5053373;28;20485;-72
2023/09/11 05:34:45;;;;;;;29.70;26.70;;;19.00;99.90;;;;;;5051323;28;20530;-71
2023/09/11 05:37:12;;;;;;;33.17;29.87;;;19.10;99.90;;;;;;5049009;28;20466;-69
2023/09/11 05:39:40;;;;;;;31.13;27.90;;;19.20;99.90;;;;;;5050479;28;20885;-71
2023/09/11 05:42:07;;;;;;;29.60;26.70;;;19.20;99.90;;;;;;5050212;28;20446;-73
2023/09/11 05:44:34;;;;;;;28.37;25.37;;;19.30;99.90;;;;;;5044921;28;20451;-71
2023/09/11 05:47:01;;;;;;;31.00;27.93;;;19.40;99.90;;;;;;5044901;28;20460;-71
2023/09/11 05:49:29;;;;;;;26.60;24.07;;;19.50;99.90;;;;;;5048934;28;20807;-73
2023/09/11 05:51:58;;;;;;;31.07;27.87;;;19.60;99.90;;;;;;5043827;28;20441;-72
2023/09/11 05:54:25;;;;;;;32.07;28.83;;;19.70;99.90;;;;;;5045143;28;20935;-73
2023/09/11 05:56:52;;;;;;;26.20;23.70;;;19.90;99.90;;;;;;5044730;28;20571;-68
2023/09/11 05:59:20;;;;;;;25.37;22.77;;;20.10;99.90;;;;;;5049482;28;20487;-70
2023/09/11 06:01:48;;;;;;;25.77;23.20;;;20.60;99.90;;;;;;5046720;28;20445;-71
2023/09/11 06:04:14;;;;;;;25.30;22.60;;;21.40;99.90;;;;;;5050756;28;20528;-70
2023/09/11 06:06:43;;;;;;;24.80;22.40;;;22.10;99.90;;;;;;5041114;28;20467;-72
2023/09/11 06:09:09;;;;;;;23.93;21.70;;;22.80;99.90;;;;;;5050108;28;20452;-70
2023/09/11 06:11:37;;;;;;;20.67;18.67;;;23.60;99.90;;;;;;5051335;28;20449;-71
2023/09/11 06:14:05;;;;;;;23.07;20.70;;;24.10;99.90;;;;;;5051060;28;20525;-72
2023/09/11 06:16:32;;;;;;;24.90;22.60;;;24.80;99.90;;;;;;5050406;28;20485;-72
2023/09/11 06:18:59;;;;;;;21.53;19.43;;;25.30;99.90;;;;;;5050694;28;20486;-69
2023/09/11 06:21:27;;;;;;;22.63;20.57;;;25.50;99.90;;;;;;5055108;28;20532;-73
2023/09/11 06:23:55;;;;;;;22.20;20.23;;;25.60;99.90;;;;;;5054030;28;20613;-71
2023/09/11 06:26:22;;;;;;;19.67;17.93;;;26.40;99.90;;;;;;5054991;28;20468;-71
2023/09/11 06:28:50;;;;;;;21.33;19.43;;;26.90;99.90;;;;;;5050534;28;20493;-71
2023/09/11 06:31:17;;;;;;;18.93;17.03;;;27.50;99.90;;;;;;5054745;28;20823;-72
2023/09/11 06:33:44;;;;;;;18.77;16.90;;;28.10;99.90;;;;;;5054625;28;20513;-70
2023/09/11 06:36:11;;;;;;;21.07;19.17;;;28.40;98.30;;;;;;5050417;28;20462;-73
2023/09/11 06:38:38;;;;;;;22.50;19.63;;;29.00;95.90;;;;;;5053712;28;20482;-71
2023/09/11 06:41:06;;;;;;;18.33;16.53;;;29.10;95.00;;;;;;5046065;28;20533;-70
2023/09/11 06:43:33;;;;;;;17.13;15.53;;;29.30;94.90;;;;;;5047036;28;20455;-71
2023/09/11 06:46:00;;;;;;;21.20;19.17;;;29.30;93.90;;;;;;5051080;28;20882;-71
2023/09/11 06:48:27;;;;;;;19.30;17.33;;;29.90;93.20;;;;;;5052986;28;20819;-71
2023/09/11 06:50:54;;;;;;;20.57;18.77;;;30.20;92.00;;;;;;5054267;28;20448;-69
2023/09/11 06:53:21;;;;;;;20.87;18.93;;;30.00;91.90;;;;;;5052534;28;20441;-69
2023/09/11 06:55:48;;;;;;;21.60;18.47;;;30.30;91.50;;;;;;5052065;28;20553;-71
2023/09/11 06:58:17;;;;;;;17.97;16.30;;;30.40;90.90;;;;;;5052758;28;20528;-70
2023/09/11 07:00:44;;;;;;;18.13;16.27;;;30.90;90.90;;;;;;5048833;28;20445;-72
2023/09/11 07:03:11;;;;;;;20.67;18.57;;;31.10;90.10;;;;;;5048300;28;20928;-73
2023/09/11 07:05:39;;;;;;;17.50;16.00;;;30.80;90.00;;;;;;5046830;28;20537;-71
2023/09/11 07:08:06;;;;;;;18.63;16.90;;;30.60;90.30;;;;;;5044991;28;20529;-70
2023/09/11 07:10:34;;;;;;;18.67;17.07;;;31.00;89.40;;;;;;5051992;28;20488;-72
2023/09/11 07:13:01;;;;;;;21.10;19.17;;;31.10;88.00;;;;;;5053112;28;20455;-70
2023/09/11 07:15:29;;;;;;;17.87;16.33;;;31.20;88.40;;;;;;5040011;28;20546;-71
2023/09/11 07:17:56;;;;;;;19.03;17.33;;;31.50;87.60;;;;;;5051672;28;20448;-70
2023/09/11 07:20:23;;;;;;;16.80;15.20;;;31.80;86.40;;;;;;5050840;28;20514;-71
2023/09/11 07:22:50;;;;;;;16.70;15.10;;;32.00;86.80;;;;;;5048692;28;20477;-71
2023/09/11 07:25:22;;;;;;;17.90;16.20;;;32.30;86.20;;;;;;5052622;28;20533;-69
2023/09/11 07:27:49;;;;;;;18.60;16.77;;;32.60;85.30;;;;;;5051811;28;20457;-71
2023/09/11 07:30:16;;;;;;;21.80;17.23;;;32.70;84.80;;;;;;5051323;28;20586;-69
2023/09/11 07:32:45;;;;;;;17.97;16.40;;;32.70;84.30;;;;;;5048207;28;20454;-70
2023/09/11 07:35:12;;;;;;;16.87;15.20;;;32.70;84.90;;;;;;5050503;28;20454;-71
2023/09/11 07:37:39;;;;;;;20.43;18.23;;;33.30;83.80;;;;;;5049571;28;20446;-71
2023/09/11 07:40:08;;;;;;;20.27;18.10;;;33.30;82.30;;;;;;5050130;28;20466;-70
2023/09/11 07:42:36;;;;;;;19.93;17.87;;;33.30;83.30;;;;;;5052154;28;20454;-71
2023/09/11 07:45:03;;;;;;;18.30;16.53;;;33.30;82.70;;;;;;5049301;28;20451;-72
2023/09/11 07:47:30;;;;;;;16.30;14.90;;;33.40;83.90;;;;;;5052641;28;20585;-69
2023/09/11 07:49:58;;;;;;;16.83;15.10;;;33.80;82.20;;;;;;5054496;28;20434;-69
2023/09/11 07:52:25;;;;;;;15.80;14.30;;;34.10;80.70;;;;;;5056506;28;20489;-72
2023/09/11 07:54:52;;;;;;;15.60;14.27;;;34.60;80.90;;;;;;5049132;28;20446;-69
2023/09/11 07:57:19;;;;;;;17.40;15.70;;;35.00;79.40;;;;;;5046944;28;20481;-71
2023/09/11 07:59:46;;;;;;;15.17;13.83;;;35.30;77.80;;;;;;5051181;28;20606;-71
2023/09/11 08:02:13;;;;;;;17.83;16.20;;;35.40;77.60;;;;;;5046863;28;20450;-72
2023/09/11 08:04:40;;;;;;;15.77;14.47;;;35.40;76.90;;;;;;5044679;28;20534;-72
2023/09/11 08:07:09;;;;;;;15.40;13.90;;;35.30;77.30;;;;;;5049996;28;20464;-71
2023/09/11 08:09:35;;;;;;;14.60;13.20;;;35.60;76.60;;;;;;5040543;28;20447;-72
2023/09/11 08:12:02;;;;;;;14.73;13.47;;;36.10;75.60;;;;;;5050779;28;20478;-72
2023/09/11 08:14:29;;;;;;;16.90;15.30;;;36.20;75.20;;;;;;5029812;28;20515;-71
2023/09/11 08:16:56;;;;;;;16.33;14.83;;;36.40;74.80;;;;;;5051818;28;20894;-71
2023/09/11 08:19:23;;;;;;;14.97;13.57;;;36.50;74.80;;;;;;5052414;28;20911;-71
2023/09/11 08:21:50;;;;;;;16.40;14.87;;;36.50;74.60;;;;;;5037017;28;20526;-71
2023/09/11 08:24:19;;;;;;;16.90;14.77;;;37.20;73.60;;;;;;5048416;28;20472;-70
2023/09/11 08:26:45;;;;;;;19.23;13.70;;;37.00;73.40;;;;;;5044167;28;20916;-73
2023/09/11 08:29:15;;;;;;;13.97;12.57;;;36.90;73.40;;;;;;5041358;28;20552;-71
2023/09/11 08:31:41;;;;;;;17.40;15.57;;;36.90;73.50;;;;;;5051872;28;20453;-70
2023/09/11 08:34:09;;;;;;;17.13;14.23;;;36.60;73.40;;;;;;5038904;28;20936;-70
2023/09/11 08:36:35;;;;;;;15.37;13.77;;;36.70;73.20;;;;;;5048621;28;20460;-71
2023/09/11 08:39:03;;;;;;;15.50;13.67;;;36.80;73.40;;;;;;5049744;28;20594;-71
2023/09/11 08:41:32;;;;;;;14.53;13.13;;;36.90;72.80;;;;;;5051084;28;20438;-72
2023/09/11 08:43:59;;;;;;;13.17;12.07;;;37.20;72.40;;;;;;5051879;28;20438;-74
2023/09/11 08:46:31;;;;;;;14.93;13.27;;;37.70;71.90;;;;;;5051988;28;20477;-73
2023/09/11 08:49:00;;;;;;;13.97;12.70;;;38.20;70.30;;;;;;5044517;28;20454;-72
2023/09/11 08:51:34;;;;;;;12.67;11.47;;;38.00;70.00;;;;;;5046206;28;20507;-71
2023/09/11 08:54:04;;;;;;;14.97;13.50;;;37.60;71.10;;;;;;5029432;28;20820;-74
2023/09/11 08:56:33;;;;;;;15.47;11.70;;;37.50;71.10;;;;;;5053289;28;20488;-70
2023/09/11 08:59:01;;;;;;;13.80;11.93;;;37.30;72.00;;;;;;5051945;28;20446;-73
2023/09/11 09:01:29;;;;;;;13.70;12.10;;;36.90;73.40;;;;;;5051939;28;20525;-73
2023/09/11 09:03:58;;;;;;;14.73;13.27;;;37.20;72.60;;;;;;5051051;28;20442;-71
2023/09/11 09:06:25;;;;;;;13.17;11.53;;;36.50;73.00;;;;;;5048855;28;20503;-73
2023/09/11 09:08:53;;;;;;;12.83;11.67;;;37.00;73.20;;;;;;5050883;28;20449;-71
2023/09/11 09:11:24;;;;;;;13.50;11.37;;;37.20;72.60;;;;;;5051485;28;20450;-72
2023/09/11 09:13:52;;;;;;;16.07;12.90;;;37.20;72.50;;;;;;5045847;28;20458;-72
2023/09/11 09:16:19;;;;;;;12.27;10.73;;;37.30;72.30;;;;;;5051724;28;20573;-72
2023/09/11 09:18:49;;;;;;;13.37;11.97;;;37.10;72.70;;;;;;5045588;28;20463;-74
2023/09/11 09:21:17;;;;;;;13.57;12.27;;;37.10;72.50;;;;;;5051762;28;20485;-72
2023/09/11 09:23:44;;;;;;;14.13;11.97;;;37.40;71.50;;;;;;5041893;28;20526;-72
2023/09/11 09:26:12;;;;;;;17.97;11.20;;;37.60;71.90;;;;;;5045302;28;20505;-70
2023/09/11 09:28:45;;;;;;;12.97;10.43;;;38.10;71.00;;;;;;5050954;28;20545;-73
2023/09/11 09:31:22;;;;;;;16.43;10.87;;;38.10;70.70;;;;;;5045119;28;20481;-70
2023/09/11 09:33:52;;;;;;;12.60;11.50;;;37.80;70.90;;;;;;5051511;28;20470;-71
2023/09/11 09:36:19;;;;;;;11.40;10.30;;;37.40;71.80;;;;;;5051436;28;20944;-72
2023/09/11 09:38:46;;;;;;;11.87;10.73;;;37.40;72.40;;;;;;5050591;28;20537;-72
2023/09/11 09:41:13;;;;;;;13.20;11.87;;;37.30;72.70;;;;;;5051258;28;21141;-73
2023/09/11 09:43:40;;;;;;;16.50;10.50;;;37.50;72.30;;;;;;5051375;28;20461;-74
2023/09/11 09:46:26;;;;;;;14.90;11.00;;;37.80;71.70;;;;;;5048465;28;20503;-73
2023/09/11 09:48:53;;;;;;;12.53;11.10;;;37.40;72.20;;;;;;5047497;28;20525;-73
2023/09/11 09:51:20;;;;;;;11.37;10.27;;;37.30;72.40;;;;;;5044663;28;20439;-71
2023/09/11 09:53:48;;;;;;;13.90;11.63;;;36.90;72.60;;;;;;5050609;28;20531;-71
2023/09/11 09:56:15;;;;;;;14.70;11.50;;;36.50;74.10;;;;;;5054605;28;20470;-70
2023/09/11 09:58:44;;;;;;;17.13;12.83;;;36.10;74.90;;;;;;5044509;28;20929;-72
2023/09/11 10:01:15;;;;;;;14.13;10.07;;;36.10;75.00;;;;;;5054779;28;20493;-72
2023/09/11 10:03:46;;;;;;;13.60;10.87;;;36.00;75.60;;;;;;5048831;28;20992;-73
2023/09/11 10:06:17;;;;;;;13.87;11.00;;;36.00;74.70;;;;;;5043657;28;20534;-72
2023/09/11 10:08:44;;;;;;;18.27;10.80;;;36.10;74.70;;;;;;5050590;28;20449;-71
2023/09/11 10:11:28;;;;;;;14.23;10.67;;;35.60;76.50;;;;;;5049763;28;20865;-71
2023/09/11 10:13:56;;;;;;;14.83;10.83;;;35.40;77.30;;;;;;5050947;28;20442;-71
2023/09/11 10:16:25;;;;;;;13.70;9.90;;;35.20;77.30;;;;;;5049529;28;20517;-72
2023/09/11 10:18:55;;;;;;;12.67;11.13;;;35.40;77.40;;;;;;5053759;28;20466;-71
2023/09/11 10:21:23;;;;;;;11.33;10.27;;;35.50;77.40;;;;;;5048433;28;20540;-73
2023/09/11 10:23:51;;;;;;;19.63;11.60;;;35.20;76.80;;;;;;5053159;28;20442;-75
2023/09/11 10:26:22;;;;;;;12.27;10.17;;;35.00;78.00;;;;;;5049824;28;20544;-73
2023/09/11 10:28:51;;;;;;;16.87;10.50;;;34.80;78.50;;;;;;5041433;28;20496;-74
2023/09/11 10:31:21;;;;;;;15.63;9.97;;;35.00;79.10;;;;;;5051425;28;20525;-70
2023/09/11 10:33:55;;;;;;;11.87;10.13;;;35.00;78.80;;;;;;5055126;28;20520;-71
2023/09/11 10:36:26;;;;;;;13.57;11.10;;;34.60;79.90;;;;;;5036926;28;20458;-73
2023/09/11 10:38:56;;;;;;;10.73;9.63;;;34.30;79.60;;;;;;5049448;28;20485;-73
2023/09/11 10:41:33;;;;;;;14.40;11.30;;;33.80;80.90;;;;;;5052945;28;20488;-71
2023/09/11 10:44:00;;;;;;;20.30;9.50;;;33.60;81.80;;;;;;5050711;28;20512;-71
2023/09/11 10:46:36;;;;;;;22.63;13.30;;;33.30;82.60;;;;;;5053631;28;20466;-72
2023/09/11 10:49:15;;;;;;;13.43;10.80;;;33.00;83.40;;;;;;5053960;28;20527;-72
2023/09/11 10:51:43;;;;;;;17.97;11.10;;;32.80;84.10;;;;;;5042907;28;20485;-73
2023/09/11 10:54:13;;;;;;;12.90;9.37;;;33.00;84.40;;;;;;5053256;28;20517;-71
2023/09/11 10:56:39;;;;;;;22.60;17.23;;;33.00;84.40;;;;;;5044238;28;20459;-70
2023/09/11 10:59:07;;;;;;;20.80;10.20;;;33.00;85.00;;;;;;5051778;28;20446;-72
2023/09/11 11:01:34;;;;;;;19.23;8.83;;;33.00;83.80;;;;;;5054443;28;20485;-71
2023/09/11 11:04:03;;;;;;;14.90;9.77;;;33.10;83.40;;;;;;5054868;28;20474;-73
2023/09/11 11:06:32;;;;;;;21.33;10.80;;;33.10;83.90;;;;;;5050730;28;20450;-74
2023/09/11 11:09:01;;;;;;;16.47;10.60;;;32.90;83.40;;;;;;5053769;28;20442;-73
2023/09/11 11:11:29;;;;;;;14.23;10.40;;;32.70;84.70;;;;;;5052469;28;20517;-74
2023/09/11 11:14:14;;;;;;;20.27;9.67;;;32.70;85.10;;;;;;5048525;28;20538;-75
2023/09/11 11:17:00;;;;;;;14.07;9.43;;;32.70;84.90;;;;;;5054125;28;20472;-72
2023/09/11 11:19:29;;;;;;;12.23;8.47;;;32.40;85.60;;;;;;5054193;28;20437;-74
2023/09/11 11:21:56;;;;;;;16.20;9.00;;;32.30;85.00;;;;;;5053500;28;20462;-72
2023/09/11 11:24:25;;;;;;;14.13;9.30;;;32.30;85.20;;;;;;5053341;28;20545;-74
2023/09/11 11:26:56;;;;;;;15.10;9.43;;;32.20;85.80;;;;;;5054489;28;20474;-74
2023/09/11 11:29:24;;;;;;;13.97;8.47;;;32.40;86.00;;;;;;5054624;28;20473;-73
2023/09/11 11:31:54;;;;;;;15.10;8.30;;;32.30;84.60;;;;;;5053705;28;20445;-74
2023/09/11 11:34:25;;;;;;;11.20;8.03;;;32.40;83.60;;;;;;5055493;28;20469;-71
2023/09/11 11:36:54;;;;;;;20.30;8.23;;;32.30;84.00;;;;;;5045734;28;20512;-74
2023/09/11 11:39:22;;;;;;;17.90;8.67;;;32.30;83.60;;;;;;5046410;28;20457;-73
2023/09/11 11:41:51;;;;;;;14.37;8.50;;;32.10;83.80;;;;;;5053046;28;20517;-72
2023/09/11 11:44:19;;;;;;;14.90;8.93;;;32.20;84.10;;;;;;5052466;28;20524;-72
2023/09/11 11:46:46;;;;;;;10.63;7.70;;;31.70;84.60;;;;;;5052463;28;21003;-72
2023/09/11 11:49:19;;;;;;;13.00;8.50;;;31.50;85.50;;;;;;5049690;28;20446;-71
2023/09/11 11:51:47;;;;;;;22.43;9.10;;;31.70;85.60;;;;;;5054159;28;20450;-73
2023/09/11 11:54:24;;;;;;;14.77;8.27;;;31.70;84.90;;;;;;5044432;28;20919;-73
2023/09/11 11:57:08;;;;;;;11.10;7.60;;;31.50;85.00;;;;;;5050163;28;20504;-73
2023/09/11 11:59:37;;;;;;;10.40;8.13;;;31.40;85.60;;;;;;5043875;28;20450;-73
2023/09/11 12:02:06;;;;;;;19.13;7.40;;;31.50;86.00;;;;;;5052481;28;20478;-70
2023/09/11 12:04:33;;;;;;;18.83;7.97;;;31.60;85.70;;;;;;5053248;28;20437;-73
2023/09/11 12:07:02;;;;;;;13.17;8.80;;;31.80;84.90;;;;;;5049045;28;21048;-71
2023/09/11 12:09:30;;;;;;;12.50;8.40;;;32.00;84.80;;;;;;5046807;28;20457;-71
2023/09/11 12:11:57;;;;;;;14.00;8.57;;;31.90;84.50;;;;;;5052215;28;20481;-74
2023/09/11 12:14:26;;;;;;;11.03;8.50;;;31.90;84.80;;;;;;5047102;28;20522;-73
2023/09/11 12:16:53;;;;;;;14.13;7.03;;;31.90;83.90;;;;;;5052248;28;20545;-73
2023/09/11 12:19:22;;;;;;;20.97;7.67;;;31.90;84.00;;;;;;5056204;28;20446;-73
2023/09/11 12:21:49;;;;;;;10.70;7.03;;;31.80;83.30;;;;;;5054153;28;20501;-73
2023/09/11 12:24:16;;;;;;;16.90;8.30;;;31.90;83.00;;;;;;5054119;28;20482;-73
2023/09/11 12:26:44;;;;;;;12.33;8.33;;;32.10;82.10;;;;;;5052009;28;20498;-72
2023/09/11 12:29:12;;;;;;;10.10;7.20;;;32.30;81.70;;;;;;5047675;28;20450;-73
2023/09/11 12:31:40;;;;;;;13.87;7.83;;;32.20;82.00;;;;;;5052390;28;20434;-73
2023/09/11 12:34:07;;;;;;;18.03;7.00;;;32.00;82.00;;;;;;5052183;28;20438;-73